CDT,Max TemperatureF,Mean TemperatureF,Min TemperatureF,Max Dew PointF,MeanDew PointF,Min DewpointF,Max Humidity, Mean Humidity, Min Humidity, Max Sea Level PressureIn, Mean Sea Level PressureIn, Min Sea Level PressureIn, Max VisibilityMiles, Mean VisibilityMiles, Min VisibilityMiles, Max Wind SpeedMPH, Mean Wind SpeedMPH, Max Gust SpeedMPH,PrecipitationIn, CloudCover, Events, WindDirDegrees
2012-10-1,64,50,37,48,42,36,100,81,45,29.97,29.91,29.86,10,10,5,7,0,,0.00,0,,140
2012-10-2,66,54,42,52,45,41,100,82,43,29.95,29.90,29.84,10,8,1,9,1,9,0.00,0,,41
2012-10-3,64,55,46,57,51,46,100,86,63,30.01,29.97,29.93,10,7,0,8,2,,0.00,7,Fog,72
2012-10-4,75,60,46,54,47,32,94,71,38,30.08,30.01,29.91,10,9,5,17,7,23,0.00,3,,232
2012-10-5,51,44,37,32,28,21,75,59,34,30.11,30.08,30.02,10,10,10,18,11,23,0.00,0,,267
2012-10-6,48,42,35,27,25,21,65,55,40,30.17,30.09,30.03,10,10,10,16,9,25,0.00,5,,293
2012-10-7,48,40,32,28,22,14,65,53,25,30.18,30.14,30.09,10,10,10,13,6,20,0.00,5,,282
2012-10-8,60,46,32,28,23,21,69,50,22,30.10,30.03,29.92,10,10,10,23,7,34,0.00,1,,199
2012-10-9,62,52,41,41,34,28,87,59,37,29.92,29.86,29.76,10,10,7,23,13,32,0.00,5,Rain,225
2012-10-10,48,40,33,37,29,18,93,72,30,30.14,30.01,29.87,10,10,10,21,8,30,0.00,1,,260
2012-10-11,62,50,37,37,28,19,70,53,30,30.29,30.10,30.00,10,10,10,24,9,36,0.00,4,Rain,237
2012-10-12,48,39,30,34,27,21,75,63,45,30.47,30.37,30.26,10,10,10,12,7,18,0.00,0,,36
2012-10-13,60,51,42,59,44,32,94,84,57,30.26,30.01,29.76,10,7,2,14,6,21,0.58,7,Rain,171
2012-10-14,66,56,46,61,54,41,94,91,81,29.75,29.63,29.42,10,6,2,22,8,32,0.59,8,Rain,227
2012-10-15,53,45,37,41,37,34,93,78,47,29.96,29.87,29.75,10,10,10,13,9,20,0.00,5,,293
2012-10-16,64,50,35,50,41,34,100,77,42,29.95,29.77,29.50,10,9,7,17,5,21,0.00,1,,173
2012-10-17,68,60,51,55,50,45,94,72,49,29.50,29.42,29.25,10,9,3,18,10,28,0.63,3,Rain,194
2012-10-18,51,46,42,50,42,37,94,83,66,29.46,29.34,29.23,10,10,7,16,10,28,0.00,7,Rain,217
2012-10-19,48,45,42,43,40,37,93,84,71,29.63,29.51,29.44,10,10,7,9,5,,0.00,8,Rain,283
2012-10-20,55,48,39,43,40,37,93,84,58,29.92,29.75,29.63,10,10,4,9,6,,0.00,5,,280
2012-10-21,60,46,33,46,39,32,100,84,55,30.04,29.98,29.92,10,9,5,10,3,,0.00,0,,173
2012-10-22,62,53,44,54,48,43,94,91,68,29.98,29.95,29.90,10,5,1,8,1,,0.00,5,Rain-Thunderstorm,33
2012-10-23,57,54,51,57,53,50,100,96,94,29.96,29.92,29.88,3,1,0,7,3,,0.00,8,Fog-Rain,80
2012-10-24,75,65,55,63,58,54,100,86,65,29.91,29.87,29.81,10,5,0,9,3,,0.00,5,Fog,170
2012-10-25,71,55,39,61,54,32,87,77,69,30.04,29.79,29.61,10,10,3,24,13,36,0.00,6,Rain,209
2012-10-26,46,39,32,32,28,25,81,70,43,30.33,30.23,30.06,10,10,10,24,13,33,0.00,1,,304
2012-10-27,44,36,28,27,23,19,80,67,39,30.35,30.31,30.28,10,10,10,15,4,20,0.00,0,,341
2012-10-28,46,39,32,28,24,19,87,65,43,30.34,30.31,30.29,10,10,7,16,7,23,0.00,3,Snow,360
2012-10-29,48,40,32,30,26,23,80,65,40,30.33,30.26,30.09,10,10,10,17,9,23,0.00,0,,353
2012-10-30,44,40,35,28,25,21,75,62,39,30.08,29.92,29.81,10,10,10,24,18,33,0.00,3,,343
2012-10-31,46,39,32,30,24,18,75,61,48,29.89,29.82,29.80,10,10,10,18,14,28,0.00,4,,314